EGQL/ADX METAR and TAF weather

Enter ICAO airport designator
Station Type Date Time Source
EGQL METAR 2018/12/18 10:50 UTC NOAA

EGQL 181050Z 17027G38KT 9999 FEW041 SCT050 BKN110 11/07 Q0995 BLU


Station Type Date Time Source
EGQL Decoded METAR 2018/12/18 10:50 UTC NOAA

Leuchars, United Kingdom (EGQL) 56-23N 002-52W 0M
Dec 18, 2018 - 05:50 AM EST / 2018.12.18 1050 UTC
Wind: from the S (170 degrees) at 31 MPH (27 KT) gusting to 44 MPH (38 KT):0
Visibility: greater than 7 mile(s):0
Sky conditions: mostly cloudy
Temperature: 51 F (11 C)
Dew Point: 44 F (7 C)
Relative Humidity: 76%
Pressure (altimeter): 29.38 in. Hg (0995 hPa)
ob: EGQL 181050Z 17027G38KT 9999 FEW041 SCT050 BKN110 11/07 Q0995 BLU
cycle: 11

Station Type Date Time Source
EGQL TAF 2011/07/27 06:03 UTC NOAA

TAF TAF
AMD EGQL 270424Z 2706/2724 14005KT 9999 BKN020 PROB30
TEMPO 2706/2708 SCT012
BECMG 2708/2710 SCT025


Example: see airport list